LTFJ

Istanbul/Sabiha Gökçen International Airport

Airport
ICAO code
LTFJ
IATA Code
SAW
Summary
ICAO Region
EUR
ICAO Territory
Location

Sanayi, Istanbul

Serving
Istanbul
Elevation
312 ft
Coordinates
40° 54' 19" N , 29° 19' 1" E
KCC
Metar
LTFJ 280320Z 05008KT 1300 0700NE R06L/P1500D R24R/0800N R06R/1300N R24L/0750N BCFG VV002 05/04 Q1022 TEMPO 0400 FG

Runways

Designator Length Width Surface Rops
6/24 3000 45 CON Yes/Yes

Airport map

Aerial View

SKYbrary Partners:

Safety knowledge contributed by: